sensor_id;sensor_type;location;lat;lon;timestamp;P1;durP1;ratioP1;P2;durP2;ratioP2
40945;SDS011;55635;50.264;11.918;2022-11-20T00:01:12;34.35;;;14.77;;
40945;SDS011;55635;50.264;11.918;2022-11-20T00:03:58;28.77;;;13.88;;
40945;SDS011;55635;50.264;11.918;2022-11-20T00:06:40;29.52;;;13.43;;
40945;SDS011;55635;50.264;11.918;2022-11-20T00:09:20;31.85;;;13.90;;
40945;SDS011;55635;50.264;11.918;2022-11-20T00:12:01;25.70;;;11.85;;
40945;SDS011;55635;50.264;11.918;2022-11-20T00:14:43;27.65;;;13.88;;
40945;SDS011;55635;50.264;11.918;2022-11-20T00:17:24;27.40;;;13.00;;
40945;SDS011;55635;50.264;11.918;2022-11-20T00:20:05;28.60;;;12.35;;
40945;SDS011;55635;50.264;11.918;2022-11-20T00:22:46;24.73;;;12.05;;
40945;SDS011;55635;50.264;11.918;2022-11-20T00:25:27;28.52;;;12.60;;
40945;SDS011;55635;50.264;11.918;2022-11-20T00:28:08;22.80;;;11.48;;
40945;SDS011;55635;50.264;11.918;2022-11-20T00:30:49;24.80;;;11.88;;
40945;SDS011;55635;50.264;11.918;2022-11-20T00:33:30;22.75;;;10.63;;
40945;SDS011;55635;50.264;11.918;2022-11-20T00:36:18;24.52;;;12.27;;
40945;SDS011;55635;50.264;11.918;2022-11-20T00:39:02;25.27;;;12.02;;
40945;SDS011;55635;50.264;11.918;2022-11-20T00:41:43;25.98;;;11.88;;
40945;SDS011;55635;50.264;11.918;2022-11-20T00:44:23;22.48;;;11.32;;
40945;SDS011;55635;50.264;11.918;2022-11-20T00:47:04;24.08;;;11.23;;
40945;SDS011;55635;50.264;11.918;2022-11-20T00:49:45;22.45;;;10.48;;
40945;SDS011;55635;50.264;11.918;2022-11-20T00:52:26;23.52;;;11.55;;
40945;SDS011;55635;50.264;11.918;2022-11-20T00:55:07;22.77;;;11.95;;
40945;SDS011;55635;50.264;11.918;2022-11-20T00:57:48;26.20;;;11.85;;
40945;SDS011;55635;50.264;11.918;2022-11-20T01:00:29;25.63;;;12.82;;
40945;SDS011;55635;50.264;11.918;2022-11-20T01:03:10;24.55;;;11.55;;
40945;SDS011;55635;50.264;11.918;2022-11-20T01:05:51;24.10;;;12.20;;
40945;SDS011;55635;50.264;11.918;2022-11-20T01:08:32;28.13;;;12.70;;
40945;SDS011;55635;50.264;11.918;2022-11-20T01:11:22;25.20;;;11.40;;
40945;SDS011;55635;50.264;11.918;2022-11-20T01:14:13;24.58;;;11.98;;
40945;SDS011;55635;50.264;11.918;2022-11-20T01:16:56;25.20;;;12.10;;
40945;SDS011;55635;50.264;11.918;2022-11-20T01:19:37;28.98;;;13.20;;
40945;SDS011;55635;50.264;11.918;2022-11-20T01:22:18;25.40;;;11.23;;
40945;SDS011;55635;50.264;11.918;2022-11-20T01:24:59;24.73;;;12.30;;
40945;SDS011;55635;50.264;11.918;2022-11-20T01:27:40;24.08;;;12.70;;
40945;SDS011;55635;50.264;11.918;2022-11-20T01:30:21;32.03;;;13.13;;
40945;SDS011;55635;50.264;11.918;2022-11-20T01:33:02;26.52;;;12.80;;
40945;SDS011;55635;50.264;11.918;2022-11-20T01:35:43;25.23;;;12.75;;
40945;SDS011;55635;50.264;11.918;2022-11-20T01:38:23;24.02;;;11.25;;
40945;SDS011;55635;50.264;11.918;2022-11-20T01:41:05;28.50;;;11.70;;
40945;SDS011;55635;50.264;11.918;2022-11-20T01:43:47;25.05;;;11.13;;
40945;SDS011;55635;50.264;11.918;2022-11-20T01:46:28;26.88;;;11.45;;
40945;SDS011;55635;50.264;11.918;2022-11-20T01:49:20;21.65;;;10.57;;
40945;SDS011;55635;50.264;11.918;2022-11-20T01:55:31;21.85;;;9.45;;
40945;SDS011;55635;50.264;11.918;2022-11-20T01:58:18;22.70;;;10.23;;
40945;SDS011;55635;50.264;11.918;2022-11-20T02:01:05;27.60;;;10.38;;
40945;SDS011;55635;50.264;11.918;2022-11-20T02:03:46;24.63;;;9.80;;
40945;SDS011;55635;50.264;11.918;2022-11-20T02:06:30;20.98;;;9.00;;
40945;SDS011;55635;50.264;11.918;2022-11-20T02:09:18;23.45;;;9.90;;
40945;SDS011;55635;50.264;11.918;2022-11-20T02:11:59;28.17;;;10.38;;
40945;SDS011;55635;50.264;11.918;2022-11-20T02:14:41;19.88;;;9.63;;
40945;SDS011;55635;50.264;11.918;2022-11-20T02:17:22;19.45;;;8.73;;
40945;SDS011;55635;50.264;11.918;2022-11-20T02:20:05;25.90;;;11.15;;
40945;SDS011;55635;50.264;11.918;2022-11-20T02:22:48;20.65;;;9.32;;
40945;SDS011;55635;50.264;11.918;2022-11-20T02:25:52;23.65;;;10.52;;
40945;SDS011;55635;50.264;11.918;2022-11-20T02:28:35;24.83;;;11.55;;
40945;SDS011;55635;50.264;11.918;2022-11-20T02:31:16;26.25;;;12.48;;
40945;SDS011;55635;50.264;11.918;2022-11-20T02:33:57;29.55;;;12.60;;
40945;SDS011;55635;50.264;11.918;2022-11-20T02:36:38;26.83;;;12.10;;
40945;SDS011;55635;50.264;11.918;2022-11-20T02:39:22;25.33;;;11.65;;
40945;SDS011;55635;50.264;11.918;2022-11-20T02:42:07;23.55;;;12.25;;
40945;SDS011;55635;50.264;11.918;2022-11-20T02:44:47;29.27;;;12.10;;
40945;SDS011;55635;50.264;11.918;2022-11-20T02:47:28;24.42;;;12.15;;
40945;SDS011;55635;50.264;11.918;2022-11-20T02:50:09;29.40;;;12.43;;
40945;SDS011;55635;50.264;11.918;2022-11-20T02:52:51;27.63;;;13.13;;
40945;SDS011;55635;50.264;11.918;2022-11-20T02:55:32;36.80;;;15.25;;
40945;SDS011;55635;50.264;11.918;2022-11-20T02:58:13;33.63;;;14.00;;
40945;SDS011;55635;50.264;11.918;2022-11-20T03:00:54;42.13;;;16.20;;
40945;SDS011;55635;50.264;11.918;2022-11-20T03:03:35;37.13;;;14.18;;
40945;SDS011;55635;50.264;11.918;2022-11-20T03:06:16;44.10;;;17.83;;
40945;SDS011;55635;50.264;11.918;2022-11-20T03:08:57;42.75;;;15.65;;
40945;SDS011;55635;50.264;11.918;2022-11-20T03:11:38;40.45;;;15.82;;
40945;SDS011;55635;50.264;11.918;2022-11-20T03:14:19;39.33;;;15.57;;
40945;SDS011;55635;50.264;11.918;2022-11-20T03:17:00;45.88;;;15.52;;
40945;SDS011;55635;50.264;11.918;2022-11-20T03:19:41;42.13;;;17.08;;
40945;SDS011;55635;50.264;11.918;2022-11-20T03:22:21;42.13;;;16.38;;
40945;SDS011;55635;50.264;11.918;2022-11-20T03:25:02;41.00;;;15.60;;
40945;SDS011;55635;50.264;11.918;2022-11-20T03:27:44;44.10;;;15.32;;
40945;SDS011;55635;50.264;11.918;2022-11-20T03:30:25;42.58;;;15.95;;
40945;SDS011;55635;50.264;11.918;2022-11-20T03:33:06;36.55;;;15.32;;
40945;SDS011;55635;50.264;11.918;2022-11-20T03:35:48;40.13;;;15.52;;
40945;SDS011;55635;50.264;11.918;2022-11-20T03:38:29;38.42;;;15.13;;
40945;SDS011;55635;50.264;11.918;2022-11-20T03:41:13;34.65;;;14.57;;
40945;SDS011;55635;50.264;11.918;2022-11-20T03:44:00;35.25;;;15.43;;
40945;SDS011;55635;50.264;11.918;2022-11-20T03:46:43;33.28;;;14.90;;
40945;SDS011;55635;50.264;11.918;2022-11-20T03:49:24;31.80;;;14.57;;
40945;SDS011;55635;50.264;11.918;2022-11-20T03:52:05;36.85;;;15.73;;
40945;SDS011;55635;50.264;11.918;2022-11-20T03:54:46;32.47;;;13.90;;
40945;SDS011;55635;50.264;11.918;2022-11-20T03:57:27;30.92;;;13.48;;
40945;SDS011;55635;50.264;11.918;2022-11-20T04:00:08;30.55;;;13.80;;
40945;SDS011;55635;50.264;11.918;2022-11-20T04:02:49;42.08;;;14.20;;
40945;SDS011;55635;50.264;11.918;2022-11-20T04:05:30;33.63;;;13.57;;
40945;SDS011;55635;50.264;11.918;2022-11-20T04:08:14;37.80;;;15.18;;
40945;SDS011;55635;50.264;11.918;2022-11-20T04:10:55;41.08;;;14.52;;
40945;SDS011;55635;50.264;11.918;2022-11-20T04:13:36;37.10;;;14.35;;
40945;SDS011;55635;50.264;11.918;2022-11-20T04:16:17;38.42;;;15.52;;
40945;SDS011;55635;50.264;11.918;2022-11-20T04:18:59;39.70;;;14.80;;
40945;SDS011;55635;50.264;11.918;2022-11-20T04:21:43;41.67;;;16.58;;
40945;SDS011;55635;50.264;11.918;2022-11-20T04:24:24;38.53;;;15.25;;
40945;SDS011;55635;50.264;11.918;2022-11-20T04:27:06;33.15;;;14.40;;
40945;SDS011;55635;50.264;11.918;2022-11-20T04:29:47;32.35;;;13.40;;
40945;SDS011;55635;50.264;11.918;2022-11-20T04:32:28;36.35;;;14.43;;
40945;SDS011;55635;50.264;11.918;2022-11-20T04:35:09;42.63;;;14.82;;
40945;SDS011;55635;50.264;11.918;2022-11-20T04:37:53;41.13;;;14.25;;
40945;SDS011;55635;50.264;11.918;2022-11-20T04:40:34;36.80;;;14.10;;
40945;SDS011;55635;50.264;11.918;2022-11-20T04:43:15;42.15;;;13.82;;
40945;SDS011;55635;50.264;11.918;2022-11-20T04:45:56;38.72;;;13.65;;
40945;SDS011;55635;50.264;11.918;2022-11-20T04:48:38;33.67;;;13.43;;
40945;SDS011;55635;50.264;11.918;2022-11-20T04:51:19;34.22;;;14.85;;
40945;SDS011;55635;50.264;11.918;2022-11-20T04:54:00;37.83;;;15.07;;
40945;SDS011;55635;50.264;11.918;2022-11-20T04:56:41;37.75;;;14.18;;
40945;SDS011;55635;50.264;11.918;2022-11-20T04:59:22;45.72;;;16.55;;
40945;SDS011;55635;50.264;11.918;2022-11-20T05:02:03;44.20;;;15.32;;
40945;SDS011;55635;50.264;11.918;2022-11-20T05:04:44;39.17;;;14.75;;
40945;SDS011;55635;50.264;11.918;2022-11-20T05:07:24;40.78;;;15.07;;
40945;SDS011;55635;50.264;11.918;2022-11-20T05:10:05;38.75;;;15.07;;
40945;SDS011;55635;50.264;11.918;2022-11-20T05:12:47;45.88;;;15.40;;
40945;SDS011;55635;50.264;11.918;2022-11-20T05:15:28;36.90;;;15.82;;
40945;SDS011;55635;50.264;11.918;2022-11-20T05:18:09;40.22;;;15.43;;
40945;SDS011;55635;50.264;11.918;2022-11-20T05:20:54;38.50;;;15.25;;
40945;SDS011;55635;50.264;11.918;2022-11-20T05:23:36;47.08;;;16.08;;
40945;SDS011;55635;50.264;11.918;2022-11-20T05:26:19;45.72;;;15.65;;
40945;SDS011;55635;50.264;11.918;2022-11-20T05:29:02;41.58;;;16.05;;
40945;SDS011;55635;50.264;11.918;2022-11-20T05:31:43;42.40;;;16.02;;
40945;SDS011;55635;50.264;11.918;2022-11-20T05:34:24;48.08;;;16.73;;
40945;SDS011;55635;50.264;11.918;2022-11-20T05:37:04;44.95;;;15.25;;
40945;SDS011;55635;50.264;11.918;2022-11-20T05:39:45;39.53;;;13.63;;
40945;SDS011;55635;50.264;11.918;2022-11-20T05:42:29;40.88;;;14.63;;
40945;SDS011;55635;50.264;11.918;2022-11-20T05:45:11;40.47;;;15.55;;
40945;SDS011;55635;50.264;11.918;2022-11-20T05:47:52;33.90;;;14.18;;
40945;SDS011;55635;50.264;11.918;2022-11-20T05:50:33;30.48;;;12.73;;
40945;SDS011;55635;50.264;11.918;2022-11-20T05:53:14;30.00;;;13.45;;
40945;SDS011;55635;50.264;11.918;2022-11-20T05:55:58;30.77;;;12.35;;
40945;SDS011;55635;50.264;11.918;2022-11-20T05:58:49;27.83;;;12.70;;
40945;SDS011;55635;50.264;11.918;2022-11-20T06:01:30;25.90;;;12.38;;
40945;SDS011;55635;50.264;11.918;2022-11-20T06:04:11;29.40;;;13.00;;
40945;SDS011;55635;50.264;11.918;2022-11-20T06:06:55;23.90;;;10.77;;
40945;SDS011;55635;50.264;11.918;2022-11-20T06:09:36;26.02;;;11.07;;
40945;SDS011;55635;50.264;11.918;2022-11-20T06:12:17;24.02;;;10.75;;
40945;SDS011;55635;50.264;11.918;2022-11-20T06:14:58;33.47;;;13.93;;
40945;SDS011;55635;50.264;11.918;2022-11-20T06:17:39;40.38;;;16.33;;
40945;SDS011;55635;50.264;11.918;2022-11-20T06:20:21;40.55;;;15.45;;
40945;SDS011;55635;50.264;11.918;2022-11-20T06:23:02;32.67;;;14.07;;
40945;SDS011;55635;50.264;11.918;2022-11-20T06:25:43;31.88;;;13.45;;
40945;SDS011;55635;50.264;11.918;2022-11-20T06:28:23;41.92;;;15.32;;
40945;SDS011;55635;50.264;11.918;2022-11-20T06:31:05;37.00;;;15.70;;
40945;SDS011;55635;50.264;11.918;2022-11-20T06:33:47;38.72;;;16.35;;
40945;SDS011;55635;50.264;11.918;2022-11-20T06:36:29;40.72;;;15.40;;
40945;SDS011;55635;50.264;11.918;2022-11-20T06:39:10;41.25;;;16.23;;
40945;SDS011;55635;50.264;11.918;2022-11-20T06:41:51;41.55;;;16.83;;
40945;SDS011;55635;50.264;11.918;2022-11-20T06:44:32;43.42;;;17.05;;
40945;SDS011;55635;50.264;11.918;2022-11-20T06:47:12;43.17;;;17.73;;
40945;SDS011;55635;50.264;11.918;2022-11-20T06:49:53;45.88;;;18.40;;
40945;SDS011;55635;50.264;11.918;2022-11-20T06:52:34;50.00;;;18.02;;
40945;SDS011;55635;50.264;11.918;2022-11-20T06:55:15;52.60;;;20.02;;
40945;SDS011;55635;50.264;11.918;2022-11-20T06:57:56;52.78;;;20.33;;
40945;SDS011;55635;50.264;11.918;2022-11-20T07:00:37;51.65;;;19.10;;
40945;SDS011;55635;50.264;11.918;2022-11-20T07:03:18;51.42;;;18.20;;
40945;SDS011;55635;50.264;11.918;2022-11-20T07:06:00;55.58;;;20.65;;
40945;SDS011;55635;50.264;11.918;2022-11-20T07:08:42;54.22;;;19.30;;
40945;SDS011;55635;50.264;11.918;2022-11-20T07:11:23;47.10;;;19.60;;
40945;SDS011;55635;50.264;11.918;2022-11-20T07:14:04;53.08;;;19.83;;
40945;SDS011;55635;50.264;11.918;2022-11-20T07:16:45;46.33;;;19.73;;
40945;SDS011;55635;50.264;11.918;2022-11-20T07:19:26;48.90;;;19.40;;
40945;SDS011;55635;50.264;11.918;2022-11-20T07:22:07;54.53;;;19.38;;
40945;SDS011;55635;50.264;11.918;2022-11-20T07:24:47;50.45;;;21.30;;
40945;SDS011;55635;50.264;11.918;2022-11-20T07:27:29;55.00;;;20.77;;
40945;SDS011;55635;50.264;11.918;2022-11-20T07:30:10;57.88;;;20.65;;
40945;SDS011;55635;50.264;11.918;2022-11-20T07:32:52;56.88;;;20.88;;
40945;SDS011;55635;50.264;11.918;2022-11-20T07:35:36;63.55;;;23.23;;
40945;SDS011;55635;50.264;11.918;2022-11-20T07:38:17;64.90;;;22.75;;
40945;SDS011;55635;50.264;11.918;2022-11-20T07:40:58;61.90;;;23.55;;
40945;SDS011;55635;50.264;11.918;2022-11-20T07:43:41;75.88;;;24.25;;
40945;SDS011;55635;50.264;11.918;2022-11-20T07:46:22;66.88;;;23.50;;
40945;SDS011;55635;50.264;11.918;2022-11-20T07:49:05;68.53;;;25.42;;
40945;SDS011;55635;50.264;11.918;2022-11-20T07:51:46;72.43;;;24.88;;
40945;SDS011;55635;50.264;11.918;2022-11-20T07:54:29;76.70;;;27.63;;
40945;SDS011;55635;50.264;11.918;2022-11-20T07:57:10;65.85;;;23.92;;
40945;SDS011;55635;50.264;11.918;2022-11-20T07:59:51;67.15;;;22.98;;
40945;SDS011;55635;50.264;11.918;2022-11-20T08:02:32;62.17;;;24.48;;
40945;SDS011;55635;50.264;11.918;2022-11-20T08:05:13;68.68;;;23.70;;
40945;SDS011;55635;50.264;11.918;2022-11-20T08:07:54;66.43;;;26.33;;
40945;SDS011;55635;50.264;11.918;2022-11-20T08:10:35;72.38;;;24.17;;
40945;SDS011;55635;50.264;11.918;2022-11-20T08:13:16;70.47;;;24.52;;
40945;SDS011;55635;50.264;11.918;2022-11-20T08:16:15;75.00;;;26.92;;
40945;SDS011;55635;50.264;11.918;2022-11-20T08:18:56;69.82;;;27.60;;
40945;SDS011;55635;50.264;11.918;2022-11-20T08:21:37;66.85;;;25.38;;
40945;SDS011;55635;50.264;11.918;2022-11-20T08:24:18;66.53;;;23.55;;
40945;SDS011;55635;50.264;11.918;2022-11-20T08:26:59;71.93;;;26.42;;
40945;SDS011;55635;50.264;11.918;2022-11-20T08:29:40;67.40;;;24.27;;
40945;SDS011;55635;50.264;11.918;2022-11-20T08:32:21;67.20;;;25.08;;
40945;SDS011;55635;50.264;11.918;2022-11-20T08:35:02;66.38;;;25.08;;
40945;SDS011;55635;50.264;11.918;2022-11-20T08:37:45;60.42;;;24.77;;
40945;SDS011;55635;50.264;11.918;2022-11-20T08:40:27;62.17;;;24.48;;
40945;SDS011;55635;50.264;11.918;2022-11-20T08:43:09;61.05;;;23.80;;
40945;SDS011;55635;50.264;11.918;2022-11-20T08:45:49;61.30;;;23.17;;
40945;SDS011;55635;50.264;11.918;2022-11-20T08:48:30;64.03;;;23.73;;
40945;SDS011;55635;50.264;11.918;2022-11-20T08:51:11;57.90;;;22.42;;
40945;SDS011;55635;50.264;11.918;2022-11-20T08:53:53;56.80;;;21.10;;
40945;SDS011;55635;50.264;11.918;2022-11-20T08:56:34;57.75;;;23.45;;
40945;SDS011;55635;50.264;11.918;2022-11-20T08:59:15;60.83;;;23.55;;
40945;SDS011;55635;50.264;11.918;2022-11-20T09:01:56;61.88;;;23.27;;
40945;SDS011;55635;50.264;11.918;2022-11-20T09:04:37;62.25;;;24.35;;
40945;SDS011;55635;50.264;11.918;2022-11-20T09:07:18;67.30;;;24.25;;
40945;SDS011;55635;50.264;11.918;2022-11-20T09:09:59;56.45;;;22.45;;
40945;SDS011;55635;50.264;11.918;2022-11-20T09:12:40;61.63;;;23.42;;
40945;SDS011;55635;50.264;11.918;2022-11-20T09:15:21;57.22;;;23.17;;
40945;SDS011;55635;50.264;11.918;2022-11-20T09:18:04;58.88;;;22.30;;
40945;SDS011;55635;50.264;11.918;2022-11-20T09:20:45;58.15;;;22.35;;
40945;SDS011;55635;50.264;11.918;2022-11-20T09:23:26;53.97;;;22.48;;
40945;SDS011;55635;50.264;11.918;2022-11-20T09:26:11;56.35;;;20.60;;
40945;SDS011;55635;50.264;11.918;2022-11-20T09:28:54;59.00;;;22.80;;
40945;SDS011;55635;50.264;11.918;2022-11-20T09:31:38;54.30;;;21.30;;
40945;SDS011;55635;50.264;11.918;2022-11-20T09:34:19;47.90;;;19.48;;
40945;SDS011;55635;50.264;11.918;2022-11-20T09:37:00;51.20;;;20.27;;
40945;SDS011;55635;50.264;11.918;2022-11-20T09:39:41;55.25;;;21.02;;
40945;SDS011;55635;50.264;11.918;2022-11-20T09:42:25;51.03;;;21.05;;
40945;SDS011;55635;50.264;11.918;2022-11-20T09:48:48;55.88;;;21.77;;
40945;SDS011;55635;50.264;11.918;2022-11-20T09:52:02;54.38;;;21.80;;
40945;SDS011;55635;50.264;11.918;2022-11-20T09:55:16;47.78;;;19.50;;
40945;SDS011;55635;50.264;11.918;2022-11-20T09:57:57;46.35;;;20.35;;
40945;SDS011;55635;50.264;11.918;2022-11-20T10:00:39;49.80;;;20.50;;
40945;SDS011;55635;50.264;11.918;2022-11-20T10:03:23;46.15;;;18.85;;
40945;SDS011;55635;50.264;11.918;2022-11-20T10:06:21;42.22;;;19.42;;
40945;SDS011;55635;50.264;11.918;2022-11-20T10:09:21;47.83;;;19.30;;
40945;SDS011;55635;50.264;11.918;2022-11-20T10:12:13;45.25;;;19.27;;
40945;SDS011;55635;50.264;11.918;2022-11-20T10:23:46;44.00;;;18.77;;
40945;SDS011;55635;50.264;11.918;2022-11-20T10:30:29;40.45;;;17.48;;
40945;SDS011;55635;50.264;11.918;2022-11-20T10:36:06;41.83;;;16.33;;
40945;SDS011;55635;50.264;11.918;2022-11-20T10:39:03;30.00;;;13.40;;
40945;SDS011;55635;50.264;11.918;2022-11-20T10:41:55;33.70;;;15.30;;
40945;SDS011;55635;50.264;11.918;2022-11-20T10:44:36;33.00;;;14.45;;
40945;SDS011;55635;50.264;11.918;2022-11-20T10:47:41;35.53;;;14.82;;
40945;SDS011;55635;50.264;11.918;2022-11-20T10:50:22;29.98;;;13.73;;
40945;SDS011;55635;50.264;11.918;2022-11-20T10:56:56;39.60;;;15.98;;
40945;SDS011;55635;50.264;11.918;2022-11-20T11:02:29;38.45;;;15.73;;
40945;SDS011;55635;50.264;11.918;2022-11-20T11:05:39;37.30;;;16.75;;
40945;SDS011;55635;50.264;11.918;2022-11-20T11:08:29;44.00;;;17.65;;
40945;SDS011;55635;50.264;11.918;2022-11-20T11:14:09;44.28;;;17.05;;
40945;SDS011;55635;50.264;11.918;2022-11-20T11:16:53;55.33;;;18.27;;
40945;SDS011;55635;50.264;11.918;2022-11-20T11:19:36;47.78;;;17.40;;
40945;SDS011;55635;50.264;11.918;2022-11-20T11:22:17;49.03;;;16.45;;
40945;SDS011;55635;50.264;11.918;2022-11-20T11:24:58;47.35;;;17.88;;
40945;SDS011;55635;50.264;11.918;2022-11-20T11:27:46;53.80;;;18.50;;
40945;SDS011;55635;50.264;11.918;2022-11-20T11:30:29;50.85;;;17.10;;
40945;SDS011;55635;50.264;11.918;2022-11-20T11:33:23;46.92;;;16.65;;
40945;SDS011;55635;50.264;11.918;2022-11-20T11:36:18;41.90;;;16.48;;
40945;SDS011;55635;50.264;11.918;2022-11-20T11:39:06;42.30;;;15.70;;
40945;SDS011;55635;50.264;11.918;2022-11-20T11:41:54;41.75;;;16.35;;
40945;SDS011;55635;50.264;11.918;2022-11-20T11:44:37;38.15;;;14.60;;
40945;SDS011;55635;50.264;11.918;2022-11-20T11:50:24;33.28;;;13.65;;
40945;SDS011;55635;50.264;11.918;2022-11-20T11:53:14;29.38;;;13.40;;
40945;SDS011;55635;50.264;11.918;2022-11-20T11:56:03;26.77;;;12.30;;
40945;SDS011;55635;50.264;11.918;2022-11-20T11:58:52;27.65;;;13.23;;
40945;SDS011;55635;50.264;11.918;2022-11-20T12:01:47;27.30;;;12.95;;
40945;SDS011;55635;50.264;11.918;2022-11-20T12:07:39;26.52;;;12.70;;
40945;SDS011;55635;50.264;11.918;2022-11-20T12:10:50;28.13;;;11.70;;
40945;SDS011;55635;50.264;11.918;2022-11-20T12:14:00;25.33;;;11.98;;
40945;SDS011;55635;50.264;11.918;2022-11-20T12:16:44;22.70;;;10.90;;
40945;SDS011;55635;50.264;11.918;2022-11-20T12:19:25;19.63;;;11.07;;
40945;SDS011;55635;50.264;11.918;2022-11-20T12:25:23;17.58;;;9.48;;
40945;SDS011;55635;50.264;11.918;2022-11-20T12:43:34;13.85;;;7.45;;
40945;SDS011;55635;50.264;11.918;2022-11-20T12:47:05;17.15;;;8.63;;
40945;SDS011;55635;50.264;11.918;2022-11-20T12:50:02;13.35;;;8.05;;
40945;SDS011;55635;50.264;11.918;2022-11-20T12:52:57;12.82;;;7.75;;
40945;SDS011;55635;50.264;11.918;2022-11-20T12:56:46;12.95;;;7.22;;
40945;SDS011;55635;50.264;11.918;2022-11-20T13:02:40;11.27;;;6.10;;
40945;SDS011;55635;50.264;11.918;2022-11-20T13:06:22;8.30;;;5.35;;
40945;SDS011;55635;50.264;11.918;2022-11-20T13:08:58;10.32;;;5.68;;
40945;SDS011;55635;50.264;11.918;2022-11-20T13:18:00;9.10;;;5.85;;
40945;SDS011;55635;50.264;11.918;2022-11-20T13:20:45;11.98;;;7.05;;
40945;SDS011;55635;50.264;11.918;2022-11-20T13:23:28;13.55;;;7.07;;
40945;SDS011;55635;50.264;11.918;2022-11-20T13:26:16;9.77;;;5.90;;
40945;SDS011;55635;50.264;11.918;2022-11-20T13:29:07;9.18;;;6.13;;
40945;SDS011;55635;50.264;11.918;2022-11-20T13:32:03;11.85;;;6.55;;
40945;SDS011;55635;50.264;11.918;2022-11-20T13:35:00;11.50;;;6.53;;
40945;SDS011;55635;50.264;11.918;2022-11-20T13:37:44;10.85;;;6.75;;
40945;SDS011;55635;50.264;11.918;2022-11-20T13:40:25;10.70;;;6.80;;
40945;SDS011;55635;50.264;11.918;2022-11-20T13:46:18;10.05;;;6.35;;
40945;SDS011;55635;50.264;11.918;2022-11-20T13:49:14;13.75;;;7.38;;
40945;SDS011;55635;50.264;11.918;2022-11-20T13:55:24;10.02;;;6.13;;
40945;SDS011;55635;50.264;11.918;2022-11-20T14:01:29;11.23;;;7.15;;
40945;SDS011;55635;50.264;11.918;2022-11-20T14:04:15;11.68;;;7.28;;
40945;SDS011;55635;50.264;11.918;2022-11-20T14:07:02;11.75;;;6.88;;
40945;SDS011;55635;50.264;11.918;2022-11-20T14:09:53;10.60;;;7.05;;
40945;SDS011;55635;50.264;11.918;2022-11-20T14:12:36;12.32;;;6.60;;
40945;SDS011;55635;50.264;11.918;2022-11-20T14:15:24;13.00;;;7.63;;
40945;SDS011;55635;50.264;11.918;2022-11-20T14:18:15;11.18;;;6.80;;
40945;SDS011;55635;50.264;11.918;2022-11-20T14:21:01;12.13;;;6.90;;
40945;SDS011;55635;50.264;11.918;2022-11-20T14:23:43;10.27;;;6.90;;
40945;SDS011;55635;50.264;11.918;2022-11-20T14:26:24;10.95;;;7.07;;
40945;SDS011;55635;50.264;11.918;2022-11-20T14:29:05;11.95;;;7.32;;
40945;SDS011;55635;50.264;11.918;2022-11-20T14:31:58;11.38;;;6.82;;
40945;SDS011;55635;50.264;11.918;2022-11-20T14:34:40;12.50;;;7.82;;
40945;SDS011;55635;50.264;11.918;2022-11-20T14:37:28;11.48;;;7.00;;
40945;SDS011;55635;50.264;11.918;2022-11-20T14:43:25;12.57;;;7.43;;
40945;SDS011;55635;50.264;11.918;2022-11-20T14:46:08;12.20;;;7.70;;
40945;SDS011;55635;50.264;11.918;2022-11-20T14:48:51;13.45;;;8.15;;
40945;SDS011;55635;50.264;11.918;2022-11-20T14:51:40;10.45;;;6.63;;
40945;SDS011;55635;50.264;11.918;2022-11-20T14:54:25;8.95;;;5.65;;
40945;SDS011;55635;50.264;11.918;2022-11-20T14:57:18;7.05;;;4.75;;
40945;SDS011;55635;50.264;11.918;2022-11-20T15:02:54;8.57;;;4.95;;
40945;SDS011;55635;50.264;11.918;2022-11-20T15:05:46;7.53;;;5.25;;
40945;SDS011;55635;50.264;11.918;2022-11-20T15:08:29;7.22;;;5.40;;
40945;SDS011;55635;50.264;11.918;2022-11-20T15:11:17;9.82;;;6.10;;
40945;SDS011;55635;50.264;11.918;2022-11-20T15:14:10;7.95;;;5.55;;
40945;SDS011;55635;50.264;11.918;2022-11-20T15:16:51;8.55;;;5.53;;
40945;SDS011;55635;50.264;11.918;2022-11-20T15:19:33;9.00;;;5.43;;
40945;SDS011;55635;50.264;11.918;2022-11-20T15:22:14;10.57;;;6.25;;
40945;SDS011;55635;50.264;11.918;2022-11-20T15:24:56;10.75;;;6.07;;
40945;SDS011;55635;50.264;11.918;2022-11-20T15:27:39;9.63;;;6.40;;
40945;SDS011;55635;50.264;11.918;2022-11-20T15:30:22;11.10;;;6.43;;
40945;SDS011;55635;50.264;11.918;2022-11-20T15:33:04;12.38;;;7.28;;
40945;SDS011;55635;50.264;11.918;2022-11-20T15:35:48;13.90;;;7.55;;
40945;SDS011;55635;50.264;11.918;2022-11-20T15:38:29;12.48;;;7.18;;
40945;SDS011;55635;50.264;11.918;2022-11-20T15:41:10;14.77;;;7.65;;
40945;SDS011;55635;50.264;11.918;2022-11-20T15:43:51;13.32;;;9.00;;
40945;SDS011;55635;50.264;11.918;2022-11-20T15:46:33;15.13;;;7.80;;
40945;SDS011;55635;50.264;11.918;2022-11-20T15:49:20;13.40;;;7.70;;
40945;SDS011;55635;50.264;11.918;2022-11-20T15:52:02;14.70;;;7.38;;
40945;SDS011;55635;50.264;11.918;2022-11-20T15:54:43;14.25;;;8.10;;
40945;SDS011;55635;50.264;11.918;2022-11-20T15:57:24;19.15;;;8.30;;
40945;SDS011;55635;50.264;11.918;2022-11-20T16:00:07;12.88;;;7.07;;
40945;SDS011;55635;50.264;11.918;2022-11-20T16:02:51;13.95;;;8.20;;
40945;SDS011;55635;50.264;11.918;2022-11-20T16:05:31;16.42;;;8.50;;
40945;SDS011;55635;50.264;11.918;2022-11-20T16:08:12;16.17;;;8.95;;
40945;SDS011;55635;50.264;11.918;2022-11-20T16:10:54;12.82;;;7.55;;
40945;SDS011;55635;50.264;11.918;2022-11-20T16:13:35;17.77;;;8.55;;
40945;SDS011;55635;50.264;11.918;2022-11-20T16:16:35;14.05;;;7.78;;
40945;SDS011;55635;50.264;11.918;2022-11-20T16:19:19;16.67;;;8.43;;
40945;SDS011;55635;50.264;11.918;2022-11-20T16:22:00;16.60;;;8.75;;
40945;SDS011;55635;50.264;11.918;2022-11-20T16:24:41;16.63;;;9.10;;
40945;SDS011;55635;50.264;11.918;2022-11-20T16:27:22;18.05;;;9.48;;
40945;SDS011;55635;50.264;11.918;2022-11-20T16:30:03;16.13;;;9.20;;
40945;SDS011;55635;50.264;11.918;2022-11-20T16:32:44;18.80;;;9.48;;
40945;SDS011;55635;50.264;11.918;2022-11-20T16:35:31;15.95;;;8.57;;
40945;SDS011;55635;50.264;11.918;2022-11-20T16:38:12;14.98;;;8.38;;
40945;SDS011;55635;50.264;11.918;2022-11-20T16:40:54;19.45;;;9.75;;
40945;SDS011;55635;50.264;11.918;2022-11-20T16:43:45;17.58;;;10.13;;
40945;SDS011;55635;50.264;11.918;2022-11-20T16:46:31;19.05;;;9.73;;
40945;SDS011;55635;50.264;11.918;2022-11-20T16:49:13;18.20;;;10.02;;
40945;SDS011;55635;50.264;11.918;2022-11-20T16:51:54;24.55;;;11.30;;
40945;SDS011;55635;50.264;11.918;2022-11-20T16:54:35;20.65;;;10.48;;
40945;SDS011;55635;50.264;11.918;2022-11-20T16:57:16;24.42;;;12.05;;
40945;SDS011;55635;50.264;11.918;2022-11-20T16:59:56;22.92;;;12.80;;
40945;SDS011;55635;50.264;11.918;2022-11-20T17:02:38;27.27;;;14.20;;
40945;SDS011;55635;50.264;11.918;2022-11-20T17:05:19;25.08;;;13.38;;
40945;SDS011;55635;50.264;11.918;2022-11-20T17:08:00;27.58;;;14.35;;
40945;SDS011;55635;50.264;11.918;2022-11-20T17:10:41;28.65;;;14.30;;
40945;SDS011;55635;50.264;11.918;2022-11-20T17:13:22;28.38;;;14.63;;